sensor_id;sensor_type;location;lat;lon;timestamp;pressure;altitude;pressure_sealevel;temperature;humidity
6132;BME280;3097;42.692;23.278;2023-12-22T00:00:17;93507.84;;;2.39;88.81
6132;BME280;3097;42.692;23.278;2023-12-22T00:02:43;93503.75;;;2.38;88.74
6132;BME280;3097;42.692;23.278;2023-12-22T00:05:08;93519.84;;;2.56;88.92
6132;BME280;3097;42.692;23.278;2023-12-22T00:07:34;93525.38;;;2.53;88.87
6132;BME280;3097;42.692;23.278;2023-12-22T00:09:59;93519.13;;;2.49;89.19
6132;BME280;3097;42.692;23.278;2023-12-22T00:12:25;93526.34;;;2.52;89.07
6132;BME280;3097;42.692;23.278;2023-12-22T00:14:50;93520.09;;;2.55;89.36
6132;BME280;3097;42.692;23.278;2023-12-22T00:17:16;93522.63;;;2.55;89.45
6132;BME280;3097;42.692;23.278;2023-12-22T00:19:41;93483.44;;;2.31;89.68
6132;BME280;3097;42.692;23.278;2023-12-22T00:22:07;93509.88;;;2.61;89.53
6132;BME280;3097;42.692;23.278;2023-12-22T00:24:32;93512.75;;;2.65;89.55
6132;BME280;3097;42.692;23.278;2023-12-22T00:26:58;93497.69;;;2.63;89.36
6132;BME280;3097;42.692;23.278;2023-12-22T00:29:24;93494.50;;;2.75;89.33
6132;BME280;3097;42.692;23.278;2023-12-22T00:31:50;93485.75;;;2.64;89.24
6132;BME280;3097;42.692;23.278;2023-12-22T00:34:15;93432.66;;;2.49;89.03
6132;BME280;3097;42.692;23.278;2023-12-22T00:36:44;93454.06;;;2.66;89.03
6132;BME280;3097;42.692;23.278;2023-12-22T00:39:09;93472.91;;;2.84;88.68
6132;BME280;3097;42.692;23.278;2023-12-22T00:41:35;93470.16;;;2.85;88.88
6132;BME280;3097;42.692;23.278;2023-12-22T00:44:00;93478.91;;;2.89;88.87
6132;BME280;3097;42.692;23.278;2023-12-22T00:46:26;93485.53;;;2.97;88.64
6132;BME280;3097;42.692;23.278;2023-12-22T00:48:51;93462.09;;;2.88;88.71
6132;BME280;3097;42.692;23.278;2023-12-22T00:51:17;93466.00;;;2.91;88.89
6132;BME280;3097;42.692;23.278;2023-12-22T00:53:42;93468.28;;;2.99;88.54
6132;BME280;3097;42.692;23.278;2023-12-22T00:56:08;93465.53;;;3.00;88.12
6132;BME280;3097;42.692;23.278;2023-12-22T00:58:33;93466.44;;;3.06;88.40
6132;BME280;3097;42.692;23.278;2023-12-22T01:00:59;93468.94;;;3.13;88.48
6132;BME280;3097;42.692;23.278;2023-12-22T01:03:25;93462.28;;;3.11;88.56
6132;BME280;3097;42.692;23.278;2023-12-22T01:05:50;93471.28;;;3.14;88.01
6132;BME280;3097;42.692;23.278;2023-12-22T01:08:16;93470.50;;;3.14;88.48
6132;BME280;3097;42.692;23.278;2023-12-22T01:10:41;93472.25;;;3.13;88.63
6132;BME280;3097;42.692;23.278;2023-12-22T01:13:07;93473.81;;;3.14;88.49
6132;BME280;3097;42.692;23.278;2023-12-22T01:15:32;93462.50;;;3.10;88.65
6132;BME280;3097;42.692;23.278;2023-12-22T01:17:58;93465.41;;;3.14;88.76
6132;BME280;3097;42.692;23.278;2023-12-22T01:20:23;93462.00;;;3.20;88.60
6132;BME280;3097;42.692;23.278;2023-12-22T01:22:49;93455.56;;;3.17;88.84
6132;BME280;3097;42.692;23.278;2023-12-22T01:25:14;93458.28;;;3.22;88.30
6132;BME280;3097;42.692;23.278;2023-12-22T01:27:40;93429.84;;;3.07;88.33
6132;BME280;3097;42.692;23.278;2023-12-22T01:30:06;93462.94;;;3.25;88.28
6132;BME280;3097;42.692;23.278;2023-12-22T01:32:32;93441.38;;;3.28;88.34
6132;BME280;3097;42.692;23.278;2023-12-22T01:35:00;93448.50;;;3.19;88.39
6132;BME280;3097;42.692;23.278;2023-12-22T01:37:36;93428.84;;;3.26;88.13
6132;BME280;3097;42.692;23.278;2023-12-22T01:40:02;93402.13;;;2.99;88.21
6132;BME280;3097;42.692;23.278;2023-12-22T01:42:28;93399.97;;;2.96;87.88
6132;BME280;3097;42.692;23.278;2023-12-22T01:44:54;93433.16;;;3.26;87.84
6132;BME280;3097;42.692;23.278;2023-12-22T01:47:20;93408.41;;;3.33;87.94
6132;BME280;3097;42.692;23.278;2023-12-22T01:49:47;93424.34;;;3.28;87.82
6132;BME280;3097;42.692;23.278;2023-12-22T01:52:15;93419.16;;;3.35;87.79
6132;BME280;3097;42.692;23.278;2023-12-22T01:54:41;93417.81;;;3.32;87.60
6132;BME280;3097;42.692;23.278;2023-12-22T01:57:07;93415.44;;;3.37;87.71
6132;BME280;3097;42.692;23.278;2023-12-22T01:59:33;93406.63;;;3.33;87.80
6132;BME280;3097;42.692;23.278;2023-12-22T02:02:03;93407.22;;;3.35;87.31
6132;BME280;3097;42.692;23.278;2023-12-22T02:04:30;93383.16;;;3.13;87.71
6132;BME280;3097;42.692;23.278;2023-12-22T02:06:58;93410.88;;;3.39;87.94
6132;BME280;3097;42.692;23.278;2023-12-22T02:09:26;93408.13;;;3.41;88.10
6132;BME280;3097;42.692;23.278;2023-12-22T02:11:51;93383.31;;;3.18;87.99
6132;BME280;3097;42.692;23.278;2023-12-22T02:14:17;93398.78;;;3.35;88.10
6132;BME280;3097;42.692;23.278;2023-12-22T02:16:51;93395.66;;;3.33;88.03
6132;BME280;3097;42.692;23.278;2023-12-22T02:22:06;93384.59;;;3.27;88.78
6132;BME280;3097;42.692;23.278;2023-12-22T02:24:32;93400.06;;;3.26;88.14
6132;BME280;3097;42.692;23.278;2023-12-22T02:27:21;93397.03;;;3.35;87.69
6132;BME280;3097;42.692;23.278;2023-12-22T02:32:56;93388.81;;;3.33;87.86
6132;BME280;3097;42.692;23.278;2023-12-22T02:35:26;93389.38;;;3.35;87.74
6132;BME280;3097;42.692;23.278;2023-12-22T02:37:52;93397.72;;;3.42;87.65
6132;BME280;3097;42.692;23.278;2023-12-22T02:40:20;93395.75;;;3.44;86.84
6132;BME280;3097;42.692;23.278;2023-12-22T02:42:46;93387.25;;;3.50;86.05
6132;BME280;3097;42.692;23.278;2023-12-22T02:45:14;93399.84;;;3.27;86.68
6132;BME280;3097;42.692;23.278;2023-12-22T02:47:40;93393.22;;;3.26;87.17
6132;BME280;3097;42.692;23.278;2023-12-22T02:50:07;93389.97;;;3.37;87.29
6132;BME280;3097;42.692;23.278;2023-12-22T02:52:32;93391.44;;;3.45;87.07
6132;BME280;3097;42.692;23.278;2023-12-22T02:54:58;93352.31;;;3.39;86.75
6132;BME280;3097;42.692;23.278;2023-12-22T02:57:24;93367.16;;;3.61;86.83
6132;BME280;3097;42.692;23.278;2023-12-22T02:59:50;93369.13;;;3.59;86.87
6132;BME280;3097;42.692;23.278;2023-12-22T03:02:15;93363.28;;;3.70;86.65
6132;BME280;3097;42.692;23.278;2023-12-22T03:04:41;93373.38;;;3.76;86.84
6132;BME280;3097;42.692;23.278;2023-12-22T03:07:06;93363.19;;;3.76;86.53
6132;BME280;3097;42.692;23.278;2023-12-22T03:09:32;93368.38;;;3.70;86.23
6132;BME280;3097;42.692;23.278;2023-12-22T03:11:59;93371.16;;;3.68;85.58
6132;BME280;3097;42.692;23.278;2023-12-22T03:14:30;93359.06;;;3.64;85.00
6132;BME280;3097;42.692;23.278;2023-12-22T03:17:05;93375.53;;;3.79;85.21
6132;BME280;3097;42.692;23.278;2023-12-22T03:19:31;93365.91;;;3.81;85.46
6132;BME280;3097;42.692;23.278;2023-12-22T03:21:57;93355.09;;;3.68;85.45
6132;BME280;3097;42.692;23.278;2023-12-22T03:24:24;93381.28;;;3.75;85.55
6132;BME280;3097;42.692;23.278;2023-12-22T03:26:50;93371.78;;;3.82;85.45
6132;BME280;3097;42.692;23.278;2023-12-22T03:29:16;93374.31;;;3.82;85.74
6132;BME280;3097;42.692;23.278;2023-12-22T03:31:42;93379.53;;;3.87;85.37
6132;BME280;3097;42.692;23.278;2023-12-22T03:34:08;93380.97;;;3.83;85.18
6132;BME280;3097;42.692;23.278;2023-12-22T03:36:33;93363.88;;;3.83;85.85
6132;BME280;3097;42.692;23.278;2023-12-22T03:38:59;93377.19;;;3.85;85.77
6132;BME280;3097;42.692;23.278;2023-12-22T03:41:24;93373.09;;;3.84;85.72
6132;BME280;3097;42.692;23.278;2023-12-22T03:43:50;93372.25;;;3.91;85.01
6132;BME280;3097;42.692;23.278;2023-12-22T03:46:15;93352.94;;;3.83;85.10
6132;BME280;3097;42.692;23.278;2023-12-22T03:48:41;93372.25;;;3.91;85.49
6132;BME280;3097;42.692;23.278;2023-12-22T03:51:06;93362.94;;;3.96;85.06
6132;BME280;3097;42.692;23.278;2023-12-22T03:53:32;93370.72;;;4.01;84.79
6132;BME280;3097;42.692;23.278;2023-12-22T03:55:57;93370.44;;;3.91;84.73
6132;BME280;3097;42.692;23.278;2023-12-22T03:58:23;93362.94;;;3.96;85.38
6132;BME280;3097;42.692;23.278;2023-12-22T04:00:49;93364.94;;;3.94;85.70
6132;BME280;3097;42.692;23.278;2023-12-22T04:03:15;93368.38;;;4.00;85.67
6132;BME280;3097;42.692;23.278;2023-12-22T04:05:40;93346.50;;;3.80;85.97
6132;BME280;3097;42.692;23.278;2023-12-22T04:08:06;93370.28;;;4.04;86.13
6132;BME280;3097;42.692;23.278;2023-12-22T04:10:32;93373.16;;;4.08;85.69
6132;BME280;3097;42.692;23.278;2023-12-22T04:12:57;93370.28;;;4.04;85.91
6132;BME280;3097;42.692;23.278;2023-12-22T04:15:23;93369.84;;;4.07;85.74
6132;BME280;3097;42.692;23.278;2023-12-22T04:17:48;93376.50;;;4.08;86.08
6132;BME280;3097;42.692;23.278;2023-12-22T04:20:15;93372.94;;;4.09;86.76
6132;BME280;3097;42.692;23.278;2023-12-22T04:22:41;93366.28;;;4.08;86.93
6132;BME280;3097;42.692;23.278;2023-12-22T04:25:07;93365.50;;;4.08;87.04
6132;BME280;3097;42.692;23.278;2023-12-22T04:27:34;93323.78;;;3.79;87.11
6132;BME280;3097;42.692;23.278;2023-12-22T04:29:59;93355.41;;;4.01;87.39
6132;BME280;3097;42.692;23.278;2023-12-22T04:32:25;93355.88;;;3.98;87.55
6132;BME280;3097;42.692;23.278;2023-12-22T04:34:50;93344.66;;;3.99;87.82
6132;BME280;3097;42.692;23.278;2023-12-22T04:37:16;93310.09;;;3.62;88.92
6132;BME280;3097;42.692;23.278;2023-12-22T04:39:41;93336.78;;;4.01;88.77
6132;BME280;3097;42.692;23.278;2023-12-22T04:42:07;93351.19;;;3.95;88.80
6132;BME280;3097;42.692;23.278;2023-12-22T04:44:32;93340.47;;;4.05;88.86
6132;BME280;3097;42.692;23.278;2023-12-22T04:46:58;93344.78;;;4.04;89.06
6132;BME280;3097;42.692;23.278;2023-12-22T04:49:23;93334.13;;;4.07;89.03
6132;BME280;3097;42.692;23.278;2023-12-22T04:51:49;93331.47;;;4.02;88.95
6132;BME280;3097;42.692;23.278;2023-12-22T04:54:15;93332.16;;;4.09;89.41
6132;BME280;3097;42.692;23.278;2023-12-22T04:56:40;93328.84;;;4.09;89.31
6132;BME280;3097;42.692;23.278;2023-12-22T04:59:06;93316.50;;;3.94;89.91
6132;BME280;3097;42.692;23.278;2023-12-22T05:01:31;93331.84;;;4.06;89.74
6132;BME280;3097;42.692;23.278;2023-12-22T05:03:57;93309.28;;;3.91;89.75
6132;BME280;3097;42.692;23.278;2023-12-22T05:06:23;93302.31;;;3.86;89.61
6132;BME280;3097;42.692;23.278;2023-12-22T05:08:49;93316.97;;;4.03;90.25
6132;BME280;3097;42.692;23.278;2023-12-22T05:11:15;93320.19;;;3.98;89.49
6132;BME280;3097;42.692;23.278;2023-12-22T05:13:41;93311.19;;;3.96;89.29
6132;BME280;3097;42.692;23.278;2023-12-22T05:16:08;93315.84;;;3.99;89.51
6132;BME280;3097;42.692;23.278;2023-12-22T05:18:33;93313.94;;;3.94;89.35
6132;BME280;3097;42.692;23.278;2023-12-22T05:20:59;93318.38;;;3.99;89.73
6132;BME280;3097;42.692;23.278;2023-12-22T05:23:25;93301.31;;;3.99;90.08
6132;BME280;3097;42.692;23.278;2023-12-22T05:25:50;93299.69;;;4.05;94.86
6132;BME280;3097;42.692;23.278;2023-12-22T05:28:16;93304.88;;;3.98;92.92
6132;BME280;3097;42.692;23.278;2023-12-22T05:30:42;93314.31;;;4.09;93.09
6132;BME280;3097;42.692;23.278;2023-12-22T05:33:07;93309.00;;;4.22;92.48
6132;BME280;3097;42.692;23.278;2023-12-22T05:35:33;93318.88;;;4.31;92.69
6132;BME280;3097;42.692;23.278;2023-12-22T05:38:01;93307.47;;;4.45;92.41
6132;BME280;3097;42.692;23.278;2023-12-22T05:40:26;93305.81;;;4.50;92.88
6132;BME280;3097;42.692;23.278;2023-12-22T05:42:52;93272.75;;;4.32;92.91
6132;BME280;3097;42.692;23.278;2023-12-22T05:45:18;93303.03;;;4.63;92.33
6132;BME280;3097;42.692;23.278;2023-12-22T05:47:46;93300.13;;;4.72;92.20
6132;BME280;3097;42.692;23.278;2023-12-22T05:50:12;93296.00;;;4.82;91.34
6132;BME280;3097;42.692;23.278;2023-12-22T05:52:38;93195.38;;;4.03;91.45
6132;BME280;3097;42.692;23.278;2023-12-22T05:55:03;93283.84;;;4.49;92.33
6132;BME280;3097;42.692;23.278;2023-12-22T05:57:29;93291.81;;;4.53;93.18
6132;BME280;3097;42.692;23.278;2023-12-22T05:59:54;93297.69;;;4.53;94.27
6132;BME280;3097;42.692;23.278;2023-12-22T06:02:20;93273.44;;;4.27;93.70
6132;BME280;3097;42.692;23.278;2023-12-22T06:04:45;93307.78;;;4.37;94.12
6132;BME280;3097;42.692;23.278;2023-12-22T06:07:11;93307.00;;;4.24;94.10
6132;BME280;3097;42.692;23.278;2023-12-22T06:09:37;93299.13;;;4.14;94.69
6132;BME280;3097;42.692;23.278;2023-12-22T06:12:02;93324.31;;;4.11;94.90
6132;BME280;3097;42.692;23.278;2023-12-22T06:14:28;93318.09;;;4.18;94.65
6132;BME280;3097;42.692;23.278;2023-12-22T06:16:54;93313.66;;;4.25;94.67
6132;BME280;3097;42.692;23.278;2023-12-22T06:19:22;93296.47;;;4.09;94.27
6132;BME280;3097;42.692;23.278;2023-12-22T06:21:49;93320.00;;;4.35;94.75
6132;BME280;3097;42.692;23.278;2023-12-22T06:24:15;93313.25;;;4.40;94.36
6132;BME280;3097;42.692;23.278;2023-12-22T06:26:42;93260.88;;;4.14;93.78
6132;BME280;3097;42.692;23.278;2023-12-22T06:29:07;93322.91;;;4.50;94.05
6132;BME280;3097;42.692;23.278;2023-12-22T06:31:33;93321.53;;;4.59;93.56
6132;BME280;3097;42.692;23.278;2023-12-22T06:33:58;93324.22;;;4.64;93.25
6132;BME280;3097;42.692;23.278;2023-12-22T06:36:27;93341.53;;;4.62;93.22
6132;BME280;3097;42.692;23.278;2023-12-22T06:38:53;93331.75;;;4.59;93.53
6132;BME280;3097;42.692;23.278;2023-12-22T06:41:23;93253.47;;;4.13;93.41
6132;BME280;3097;42.692;23.278;2023-12-22T06:43:49;93333.53;;;4.70;92.53
6132;BME280;3097;42.692;23.278;2023-12-22T06:48:46;93336.31;;;4.68;92.07
6132;BME280;3097;42.692;23.278;2023-12-22T06:51:18;93318.00;;;4.60;91.95
6132;BME280;3097;42.692;23.278;2023-12-22T06:53:45;93338.28;;;4.90;91.89
6132;BME280;3097;42.692;23.278;2023-12-22T06:56:21;93324.09;;;4.82;91.72
6132;BME280;3097;42.692;23.278;2023-12-22T06:58:48;93336.41;;;4.85;92.35
6132;BME280;3097;42.692;23.278;2023-12-22T07:01:34;93337.06;;;4.92;91.69
6132;BME280;3097;42.692;23.278;2023-12-22T07:04:01;93342.94;;;4.93;90.60
6132;BME280;3097;42.692;23.278;2023-12-22T07:06:30;93344.94;;;4.91;91.18
6132;BME280;3097;42.692;23.278;2023-12-22T07:11:22;93338.53;;;4.65;91.96
6132;BME280;3097;42.692;23.278;2023-12-22T07:13:48;93339.97;;;4.73;91.56
6132;BME280;3097;42.692;23.278;2023-12-22T07:16:14;93326.09;;;4.68;92.23
6132;BME280;3097;42.692;23.278;2023-12-22T07:18:40;93343.84;;;4.87;91.46
6132;BME280;3097;42.692;23.278;2023-12-22T07:21:05;93356.59;;;4.98;92.55
6132;BME280;3097;42.692;23.278;2023-12-22T07:23:31;93303.56;;;4.77;92.00
6132;BME280;3097;42.692;23.278;2023-12-22T07:25:57;93353.44;;;5.20;90.70
6132;BME280;3097;42.692;23.278;2023-12-22T07:28:23;93355.91;;;5.15;90.74
6132;BME280;3097;42.692;23.278;2023-12-22T07:30:49;93351.56;;;5.15;90.56
6132;BME280;3097;42.692;23.278;2023-12-22T07:33:14;93342.81;;;5.11;91.29
6132;BME280;3097;42.692;23.278;2023-12-22T07:35:40;93351.88;;;5.30;91.06
6132;BME280;3097;42.692;23.278;2023-12-22T07:38:05;93343.81;;;5.10;91.33
6132;BME280;3097;42.692;23.278;2023-12-22T07:40:31;93362.09;;;5.30;91.08
6132;BME280;3097;42.692;23.278;2023-12-22T07:42:57;93339.81;;;5.14;91.07
6132;BME280;3097;42.692;23.278;2023-12-22T07:45:23;93353.91;;;5.17;91.64
6132;BME280;3097;42.692;23.278;2023-12-22T07:47:48;93357.69;;;5.14;92.11
6132;BME280;3097;42.692;23.278;2023-12-22T07:50:14;93352.34;;;5.16;92.48
6132;BME280;3097;42.692;23.278;2023-12-22T07:52:40;93370.44;;;5.14;92.81
6132;BME280;3097;42.692;23.278;2023-12-22T07:55:07;93338.63;;;4.93;92.92
6132;BME280;3097;42.692;23.278;2023-12-22T07:57:37;93381.31;;;5.33;92.46
6132;BME280;3097;42.692;23.278;2023-12-22T08:00:06;93351.72;;;4.85;93.47
6132;BME280;3097;42.692;23.278;2023-12-22T08:02:32;93363.56;;;5.15;93.85
6132;BME280;3097;42.692;23.278;2023-12-22T08:04:58;93392.09;;;5.23;94.11
6132;BME280;3097;42.692;23.278;2023-12-22T08:07:23;93393.97;;;5.28;94.47
6132;BME280;3097;42.692;23.278;2023-12-22T08:09:49;93401.97;;;5.31;93.94
6132;BME280;3097;42.692;23.278;2023-12-22T08:12:14;93407.75;;;5.15;95.01
6132;BME280;3097;42.692;23.278;2023-12-22T08:14:40;93412.31;;;5.01;95.12
6132;BME280;3097;42.692;23.278;2023-12-22T08:17:06;93416.31;;;5.21;95.18
6132;BME280;3097;42.692;23.278;2023-12-22T08:19:32;93417.19;;;5.15;95.54
6132;BME280;3097;42.692;23.278;2023-12-22T08:21:57;93418.31;;;4.95;96.98
6132;BME280;3097;42.692;23.278;2023-12-22T08:24:23;93413.19;;;4.84;98.01
6132;BME280;3097;42.692;23.278;2023-12-22T08:26:49;93421.41;;;4.97;97.89
6132;BME280;3097;42.692;23.278;2023-12-22T08:29:15;93422.97;;;4.98;97.99
6132;BME280;3097;42.692;23.278;2023-12-22T08:31:50;93424.19;;;5.07;97.59
6132;BME280;3097;42.692;23.278;2023-12-22T08:34:16;93415.09;;;5.23;96.53
6132;BME280;3097;42.692;23.278;2023-12-22T08:36:43;93430.16;;;5.36;96.36
6132;BME280;3097;42.692;23.278;2023-12-22T08:39:08;93423.72;;;5.45;96.37
6132;BME280;3097;42.692;23.278;2023-12-22T08:41:34;93417.16;;;5.38;96.92
6132;BME280;3097;42.692;23.278;2023-12-22T08:44:02;93418.03;;;5.43;97.03
6132;BME280;3097;42.692;23.278;2023-12-22T08:46:28;93428.56;;;5.59;96.63
6132;BME280;3097;42.692;23.278;2023-12-22T08:48:57;93423.44;;;5.70;96.02
6132;BME280;3097;42.692;23.278;2023-12-22T08:51:25;93425.66;;;5.78;95.67
6132;BME280;3097;42.692;23.278;2023-12-22T08:53:50;93419.50;;;5.79;96.31
6132;BME280;3097;42.692;23.278;2023-12-22T08:56:17;93418.63;;;5.86;96.05
6132;BME280;3097;42.692;23.278;2023-12-22T08:58:43;93418.84;;;5.84;96.42
6132;BME280;3097;42.692;23.278;2023-12-22T09:01:19;93419.41;;;5.86;96.77
6132;BME280;3097;42.692;23.278;2023-12-22T09:03:47;93421.28;;;5.79;97.83
6132;BME280;3097;42.692;23.278;2023-12-22T09:06:17;93421.13;;;6.09;96.29
6132;BME280;3097;42.692;23.278;2023-12-22T09:08:43;93429.66;;;6.14;96.14
6132;BME280;3097;42.692;23.278;2023-12-22T09:11:11;93449.25;;;6.09;96.52
6132;BME280;3097;42.692;23.278;2023-12-22T09:13:37;93445.22;;;6.13;97.17
6132;BME280;3097;42.692;23.278;2023-12-22T09:16:03;93334.38;;;5.51;96.28
6132;BME280;3097;42.692;23.278;2023-12-22T09:18:29;93427.72;;;6.21;96.27
6132;BME280;3097;42.692;23.278;2023-12-22T09:20:54;93449.91;;;6.33;97.05
6132;BME280;3097;42.692;23.278;2023-12-22T09:23:20;93443.13;;;6.38;97.59
6132;BME280;3097;42.692;23.278;2023-12-22T09:25:46;93443.78;;;6.34;97.19
6132;BME280;3097;42.692;23.278;2023-12-22T09:28:12;93341.22;;;5.62;97.83
6132;BME280;3097;42.692;23.278;2023-12-22T09:30:38;93368.16;;;5.93;97.86
6132;BME280;3097;42.692;23.278;2023-12-22T09:33:03;93439.53;;;6.39;97.82
6132;BME280;3097;42.692;23.278;2023-12-22T09:35:29;93421.09;;;6.37;98.13
6132;BME280;3097;42.692;23.278;2023-12-22T09:37:55;93421.09;;;6.37;98.54
6132;BME280;3097;42.692;23.278;2023-12-22T09:40:21;93324.69;;;5.81;99.25
6132;BME280;3097;42.692;23.278;2023-12-22T09:42:48;93403.59;;;6.46;99.63
6132;BME280;3097;42.692;23.278;2023-12-22T09:45:17;93422.09;;;6.70;99.53
6132;BME280;3097;42.692;23.278;2023-12-22T09:47:45;93414.13;;;6.83;99.17
6132;BME280;3097;42.692;23.278;2023-12-22T09:50:11;93357.34;;;6.52;99.19
6132;BME280;3097;42.692;23.278;2023-12-22T09:52:42;93415.13;;;6.98;98.88
6132;BME280;3097;42.692;23.278;2023-12-22T09:55:09;93409.22;;;6.98;99.02
6132;BME280;3097;42.692;23.278;2023-12-22T09:57:37;93419.22;;;7.16;98.90
6132;BME280;3097;42.692;23.278;2023-12-22T10:00:06;93405.22;;;7.24;98.83
6132;BME280;3097;42.692;23.278;2023-12-22T10:02:33;93408.56;;;7.24;98.42
6132;BME280;3097;42.692;23.278;2023-12-22T10:05:00;93393.13;;;7.19;98.28
6132;BME280;3097;42.692;23.278;2023-12-22T10:07:26;93291.88;;;6.56;98.73
6132;BME280;3097;42.692;23.278;2023-12-22T10:09:52;93405.66;;;7.37;98.34
6132;BME280;3097;42.692;23.278;2023-12-22T10:12:21;93403.41;;;7.41;98.39
6132;BME280;3097;42.692;23.278;2023-12-22T10:14:47;93403.63;;;7.39;99.20
6132;BME280;3097;42.692;23.278;2023-12-22T10:17:16;93390.41;;;7.48;99.68
6132;BME280;3097;42.692;23.278;2023-12-22T10:19:42;93389.94;;;7.51;99.80
6132;BME280;3097;42.692;23.278;2023-12-22T10:22:08;93331.00;;;7.29;99.36
6132;BME280;3097;42.692;23.278;2023-12-22T10:24:41;93381.16;;;7.68;98.68
6132;BME280;3097;42.692;23.278;2023-12-22T10:27:13;93371.13;;;7.67;98.72
6132;BME280;3097;42.692;23.278;2023-12-22T10:29:40;93368.13;;;7.75;100.00
6132;BME280;3097;42.692;23.278;2023-12-22T10:32:07;93356.94;;;7.81;97.64
6132;BME280;3097;42.692;23.278;2023-12-22T10:34:33;93369.28;;;7.84;98.38
6132;BME280;3097;42.692;23.278;2023-12-22T10:37:00;93366.16;;;7.82;98.50
6132;BME280;3097;42.692;23.278;2023-12-22T10:39:32;93360.53;;;7.80;98.82
6132;BME280;3097;42.692;23.278;2023-12-22T10:41:58;93284.47;;;7.42;98.81
6132;BME280;3097;42.692;23.278;2023-12-22T10:44:28;93331.72;;;7.73;98.87
6132;BME280;3097;42.692;23.278;2023-12-22T10:46:54;93315.47;;;7.89;99.75
6132;BME280;3097;42.692;23.278;2023-12-22T10:49:21;93325.69;;;8.11;98.02
6132;BME280;3097;42.692;23.278;2023-12-22T10:51:47;93324.63;;;8.12;98.91
6132;BME280;3097;42.692;23.278;2023-12-22T10:54:12;93323.94;;;8.22;99.20
6132;BME280;3097;42.692;23.278;2023-12-22T10:56:39;93259.78;;;7.90;98.41
6132;BME280;3097;42.692;23.278;2023-12-22T10:59:05;93322.59;;;8.41;98.45
6132;BME280;3097;42.692;23.278;2023-12-22T11:01:32;93319.63;;;8.54;98.15
6132;BME280;3097;42.692;23.278;2023-12-22T11:04:02;93323.78;;;8.65;96.86
6132;BME280;3097;42.692;23.278;2023-12-22T11:06:35;93319.19;;;8.67;95.71
6132;BME280;3097;42.692;23.278;2023-12-22T11:09:08;93309.75;;;8.78;93.43
6132;BME280;3097;42.692;23.278;2023-12-22T11:11:38;93300.50;;;8.77;91.63
6132;BME280;3097;42.692;23.278;2023-12-22T11:14:07;93289.69;;;8.75;90.99
6132;BME280;3097;42.692;23.278;2023-12-22T11:16:35;93267.34;;;8.75;88.84
6132;BME280;3097;42.692;23.278;2023-12-22T11:19:03;93280.75;;;8.87;89.77
6132;BME280;3097;42.692;23.278;2023-12-22T11:21:29;93283.88;;;8.89;88.53
6132;BME280;3097;42.692;23.278;2023-12-22T11:23:56;93289.16;;;8.73;90.17
6132;BME280;3097;42.692;23.278;2023-12-22T11:26:24;93282.75;;;8.70;91.72
6132;BME280;3097;42.692;23.278;2023-12-22T11:28:51;93298.72;;;8.82;91.73
6132;BME280;3097;42.692;23.278;2023-12-22T11:31:18;93302.38;;;8.91;88.30
6132;BME280;3097;42.692;23.278;2023-12-22T11:33:48;93317.25;;;8.84;86.66
6132;BME280;3097;42.692;23.278;2023-12-22T11:36:14;93321.75;;;8.67;86.12
6132;BME280;3097;42.692;23.278;2023-12-22T11:38:42;93333.00;;;8.61;87.86
6132;BME280;3097;42.692;23.278;2023-12-22T11:41:21;93288.81;;;8.27;87.52
6132;BME280;3097;42.692;23.278;2023-12-22T11:43:51;93335.13;;;8.69;86.26
6132;BME280;3097;42.692;23.278;2023-12-22T11:46:18;93344.94;;;8.77;85.23
6132;BME280;3097;42.692;23.278;2023-12-22T11:48:51;93340.75;;;8.66;84.33
6132;BME280;3097;42.692;23.278;2023-12-22T11:51:18;93340.19;;;8.59;84.54
6132;BME280;3097;42.692;23.278;2023-12-22T11:53:44;93300.63;;;8.23;86.07
6132;BME280;3097;42.692;23.278;2023-12-22T11:56:11;93336.50;;;8.50;84.91
6132;BME280;3097;42.692;23.278;2023-12-22T11:58:46;93325.97;;;8.46;83.85
6132;BME280;3097;42.692;23.278;2023-12-22T12:01:25;93335.38;;;8.36;85.43
6132;BME280;3097;42.692;23.278;2023-12-22T12:03:52;93353.97;;;8.48;85.54
6132;BME280;3097;42.692;23.278;2023-12-22T12:06:22;93343.91;;;8.41;86.26
6132;BME280;3097;42.692;23.278;2023-12-22T12:09:03;93341.16;;;8.48;86.59
6132;BME280;3097;42.692;23.278;2023-12-22T12:14:22;93362.88;;;8.72;83.08
6132;BME280;3097;42.692;23.278;2023-12-22T12:17:06;93349.41;;;8.55;83.91
6132;BME280;3097;42.692;23.278;2023-12-22T12:19:34;93340.59;;;8.46;84.48
6132;BME280;3097;42.692;23.278;2023-12-22T12:22:00;93334.47;;;8.47;83.68
6132;BME280;3097;42.692;23.278;2023-12-22T12:24:26;93320.06;;;8.46;84.04
6132;BME280;3097;42.692;23.278;2023-12-22T12:26:52;93323.41;;;8.46;83.49
6132;BME280;3097;42.692;23.278;2023-12-22T12:29:17;93317.97;;;8.43;82.63
6132;BME280;3097;42.692;23.278;2023-12-22T12:31:45;93306.56;;;8.29;82.72
6132;BME280;3097;42.692;23.278;2023-12-22T12:34:12;93293.09;;;8.11;81.77
6132;BME280;3097;42.692;23.278;2023-12-22T12:36:39;93309.91;;;8.29;82.43
6132;BME280;3097;42.692;23.278;2023-12-22T12:39:07;93302.44;;;8.28;82.23
6132;BME280;3097;42.692;23.278;2023-12-22T12:41:40;93290.09;;;8.25;81.79
6132;BME280;3097;42.692;23.278;2023-12-22T12:44:06;93290.66;;;8.27;81.34
6132;BME280;3097;42.692;23.278;2023-12-22T12:46:37;93286.00;;;8.24;82.41
6132;BME280;3097;42.692;23.278;2023-12-22T12:49:10;93287.03;;;8.28;82.51
6132;BME280;3097;42.692;23.278;2023-12-22T12:51:43;93291.25;;;8.34;81.31
6132;BME280;3097;42.692;23.278;2023-12-22T12:54:10;93291.25;;;8.34;81.58
6132;BME280;3097;42.692;23.278;2023-12-22T12:56:46;93303.41;;;8.22;82.48
6132;BME280;3097;42.692;23.278;2023-12-22T12:59:16;93325.63;;;8.33;81.82
6132;BME280;3097;42.692;23.278;2023-12-22T13:01:44;93333.31;;;8.33;82.14
6132;BME280;3097;42.692;23.278;2023-12-22T13:04:12;93344.16;;;8.40;81.55
6132;BME280;3097;42.692;23.278;2023-12-22T13:06:47;93336.72;;;8.43;80.76
6132;BME280;3097;42.692;23.278;2023-12-22T13:09:14;93318.69;;;8.33;79.51
6132;BME280;3097;42.692;23.278;2023-12-22T13:11:43;93328.34;;;8.53;78.11
6132;BME280;3097;42.692;23.278;2023-12-22T13:14:09;93283.84;;;8.10;77.47
6132;BME280;3097;42.692;23.278;2023-12-22T13:16:36;93334.59;;;8.35;77.94
6132;BME280;3097;42.692;23.278;2023-12-22T13:19:03;93357.88;;;8.29;78.50
6132;BME280;3097;42.692;23.278;2023-12-22T13:21:28;93338.16;;;8.02;78.38
6132;BME280;3097;42.692;23.278;2023-12-22T13:24:14;93387.53;;;8.14;78.39
6132;BME280;3097;42.692;23.278;2023-12-22T13:26:41;93393.25;;;8.22;77.99
6132;BME280;3097;42.692;23.278;2023-12-22T13:29:08;93406.00;;;8.11;78.58
6132;BME280;3097;42.692;23.278;2023-12-22T13:31:36;93416.63;;;7.98;80.07
6132;BME280;3097;42.692;23.278;2023-12-22T13:34:11;93425.41;;;8.02;79.76